Terminal Aerodrome Forecast
Issued by NWS

Home | Current Version | Previous Version | Text Only | Print | Product List | Glossary On
Versions: 1 2 3 4 5 6 7 8 9 10 11 12 13 14
140
FTUS43 KGRR 282345
TAFJXN
TAF
KJXN 282345Z 2900/2924 15006KT P6SM OVC070
     FM290700 06004KT P6SM OVC050
     FM291200 03009KT P6SM OVC035
     FM291500 06009KT 5SM -SHRA BR OVC025=

USA.gov is the U.S. government's official web portal to all federal, state and local government web resources and services.